PWSweather.com
Personal Weather Stations
Station Observations
KILMORRI1
Goose Lake, Morris, IL 60450

Goose LakeMorris, IL 60450

Lat: 41.34, Lon: -88.3

Elevation: 523

Station Type:

www.gooselakeweather.com

High Low Average
Temperature 11.4°F-11.4°C -15.1°F-26.2°C 2.3°F-16.5°C
Dew Point 7.5°F-13.6°C -20.0°F-28.9°C -2.6°F-19.2°C
Winds 10.4 mph 16.7 kmh Calm Calm 2.0 mph SW3.2 kmh SW
Wind Gusts 16.1 mph25.9 kmh -- 4.0 mph6.4 kmh
Humidity 85% 68% 80%
Pressure 30.30 in1026.1 mb 30.00 in1015.9 mb -
Precipitation 0.00 in0.0 mm - -
Hour Temp Dew Point Humidity Winds Wind Gusts Pressure Precip Precip Rate Daily Precip Total
12:00 AM 4.8°F-15.1°C 0.0°F-17.8°C 80% 1.2 mph NNW1.9 kmh NNW 2.3 mph3.7 kmh 30.26 in1024.7 mb - 0.00 in0.0 mm 0.00 in0.0 mm
12:10 AM 3.7°F-15.7°C -1.1°F-18.4°C 80% 2.3 mph NW3.7 kmh NW 3.5 mph5.6 kmh 30.26 in1024.7 mb - 0.00 in0.0 mm 0.00 in0.0 mm
12:20 AM 2.1°F-16.6°C -2.6°F-19.2°C 80% 1.2 mph NW1.9 kmh NW 2.3 mph3.7 kmh 30.25 in1024.4 mb - 0.00 in0.0 mm 0.00 in0.0 mm
12:30 AM 0.9°F-17.3°C -3.8°F-19.9°C 80% 1.2 mph NW1.9 kmh NW 2.3 mph3.7 kmh 30.26 in1024.7 mb - 0.00 in0.0 mm 0.00 in0.0 mm
12:40 AM 0.2°F-17.7°C -4.3°F-20.2°C 81% 2.3 mph NNW3.7 kmh NNW 3.5 mph5.6 kmh 30.26 in1024.7 mb - 0.00 in0.0 mm 0.00 in0.0 mm
12:50 AM -0.6°F-18.1°C -5.0°F-20.6°C 81% 1.2 mph NNW1.9 kmh NNW 2.3 mph3.7 kmh 30.26 in1024.7 mb - 0.00 in0.0 mm 0.00 in0.0 mm
01:00 AM -1.5°F-18.6°C -5.6°F-20.9°C 82% 1.2 mph NW1.9 kmh NW 2.3 mph3.7 kmh 30.26 in1024.7 mb - 0.00 in0.0 mm 0.00 in0.0 mm
01:10 AM -2.3°F-19.1°C -6.5°F-21.4°C 82% 1.2 mph NW1.9 kmh NW 1.2 mph1.9 kmh 30.27 in1025.1 mb - 0.00 in0.0 mm 0.00 in0.0 mm
01:20 AM -2.6°F-19.2°C -6.5°F-21.4°C 83% 2.3 mph NW3.7 kmh NW 3.5 mph5.6 kmh 30.27 in1025.1 mb - 0.00 in0.0 mm 0.00 in0.0 mm
01:30 AM -2.5°F-19.2°C -6.7°F-21.5°C 82% 1.2 mph N1.9 kmh N 2.3 mph3.7 kmh 30.27 in1025.1 mb - 0.00 in0.0 mm 0.00 in0.0 mm
01:40 AM -2.8°F-19.3°C -7.0°F-21.7°C 82% 1.2 mph NW1.9 kmh NW 3.5 mph5.6 kmh 30.27 in1025.1 mb - 0.00 in0.0 mm 0.00 in0.0 mm
01:50 AM -3.5°F-19.7°C -7.6°F-22.0°C 82% Calm Calm 1.2 mph1.9 kmh 30.28 in1025.4 mb - 0.00 in0.0 mm 0.00 in0.0 mm
02:00 AM -3.9°F-19.9°C -8.0°F-22.2°C 82% 1.2 mph NW1.9 kmh NW 1.2 mph1.9 kmh 30.27 in1025.1 mb - 0.00 in0.0 mm 0.00 in0.0 mm
02:10 AM -3.9°F-19.9°C -8.0°F-22.2°C 82% 1.2 mph NW1.9 kmh NW 3.5 mph5.6 kmh 30.28 in1025.4 mb - 0.00 in0.0 mm 0.00 in0.0 mm
02:20 AM -4.4°F-20.2°C -8.8°F-22.7°C 81% 1.2 mph NW1.9 kmh NW 3.5 mph5.6 kmh 30.28 in1025.4 mb - 0.00 in0.0 mm 0.00 in0.0 mm
02:30 AM -4.6°F-20.3°C -8.9°F-22.7°C 81% 1.2 mph NW1.9 kmh NW 2.3 mph3.7 kmh 30.28 in1025.4 mb - 0.00 in0.0 mm 0.00 in0.0 mm
02:40 AM -5.2°F-20.7°C -9.6°F-23.1°C 81% 1.2 mph NW1.9 kmh NW 2.3 mph3.7 kmh 30.28 in1025.4 mb - 0.00 in0.0 mm 0.00 in0.0 mm
02:50 AM -5.7°F-20.9°C -10.0°F-23.3°C 81% 1.2 mph NW1.9 kmh NW 2.3 mph3.7 kmh 30.28 in1025.4 mb - 0.00 in0.0 mm 0.00 in0.0 mm
03:00 AM -5.9°F-21.1°C -10.2°F-23.4°C 81% 1.2 mph NW1.9 kmh NW 1.2 mph1.9 kmh 30.28 in1025.4 mb - 0.00 in0.0 mm 0.00 in0.0 mm
03:10 AM -7.3°F-21.8°C -11.8°F-24.3°C 80% 1.2 mph NW1.9 kmh NW 1.2 mph1.9 kmh 30.29 in1025.7 mb - 0.00 in0.0 mm 0.00 in0.0 mm
03:20 AM -8.0°F-22.2°C -12.3°F-24.6°C 81% 2.3 mph WNW3.7 kmh WNW 3.5 mph5.6 kmh 30.29 in1025.7 mb - 0.00 in0.0 mm 0.00 in0.0 mm
03:30 AM -7.5°F-21.9°C -11.8°F-24.3°C 81% 1.2 mph WNW1.9 kmh WNW 2.3 mph3.7 kmh 30.29 in1025.7 mb - 0.00 in0.0 mm 0.00 in0.0 mm
03:40 AM -6.7°F-21.5°C -10.8°F-23.8°C 82% 1.2 mph WNW1.9 kmh WNW 3.5 mph5.6 kmh 30.29 in1025.7 mb - 0.00 in0.0 mm 0.00 in0.0 mm
03:50 AM -6.8°F-21.6°C -10.9°F-23.8°C 82% 1.2 mph WNW1.9 kmh WNW 2.3 mph3.7 kmh 30.28 in1025.4 mb - 0.00 in0.0 mm 0.00 in0.0 mm
04:00 AM -7.3°F-21.8°C -11.6°F-24.2°C 81% Calm Calm 1.2 mph1.9 kmh 30.29 in1025.7 mb - 0.00 in0.0 mm 0.00 in0.0 mm
04:10 AM -7.9°F-22.2°C -12.2°F-24.6°C 81% 1.2 mph NW1.9 kmh NW 2.3 mph3.7 kmh 30.28 in1025.4 mb - 0.00 in0.0 mm 0.00 in0.0 mm
04:20 AM -8.3°F-22.4°C -12.6°F-24.8°C 81% 1.2 mph NW1.9 kmh NW 1.2 mph1.9 kmh 30.28 in1025.4 mb - 0.00 in0.0 mm 0.00 in0.0 mm
04:30 AM -8.8°F-22.7°C -13.1°F-25.1°C 81% Calm Calm 1.2 mph1.9 kmh 30.28 in1025.4 mb - 0.00 in0.0 mm 0.00 in0.0 mm
04:40 AM -9.4°F-23.0°C -13.6°F-25.3°C 81% Calm Calm 1.2 mph1.9 kmh 30.29 in1025.7 mb - 0.00 in0.0 mm 0.00 in0.0 mm
04:50 AM -10.3°F-23.5°C -14.5°F-25.8°C 81% Calm Calm 1.2 mph1.9 kmh 30.28 in1025.4 mb - 0.00 in0.0 mm 0.00 in0.0 mm
05:00 AM -10.4°F-23.6°C -14.8°F-26.0°C 80% Calm Calm 1.2 mph1.9 kmh 30.28 in1025.4 mb - 0.00 in0.0 mm 0.00 in0.0 mm
05:10 AM -10.6°F-23.7°C -15.1°F-26.2°C 80% Calm Calm 1.2 mph1.9 kmh 30.28 in1025.4 mb - 0.00 in0.0 mm 0.00 in0.0 mm
05:20 AM -10.9°F-23.8°C -15.3°F-26.3°C 80% Calm Calm 1.2 mph1.9 kmh 30.28 in1025.4 mb - 0.00 in0.0 mm 0.00 in0.0 mm
05:30 AM -11.2°F-24.0°C -15.7°F-26.5°C 80% Calm Calm -- 30.28 in1025.4 mb - 0.00 in0.0 mm 0.00 in0.0 mm
05:40 AM -11.7°F-24.3°C -16.1°F-26.7°C 80% Calm Calm -- 30.28 in1025.4 mb - 0.00 in0.0 mm 0.00 in0.0 mm
05:50 AM -12.0°F-24.4°C -16.7°F-27.1°C 79% 1.2 mph NW1.9 kmh NW 1.2 mph1.9 kmh 30.28 in1025.4 mb - 0.00 in0.0 mm 0.00 in0.0 mm
06:00 AM -12.4°F-24.7°C -17.1°F-27.3°C 79% 1.2 mph NW1.9 kmh NW 1.2 mph1.9 kmh 30.29 in1025.7 mb - 0.00 in0.0 mm 0.00 in0.0 mm
06:10 AM -12.9°F-24.9°C -17.6°F-27.6°C 79% 1.2 mph NW1.9 kmh NW 2.3 mph3.7 kmh 30.29 in1025.7 mb - 0.00 in0.0 mm 0.00 in0.0 mm
06:20 AM -13.3°F-25.2°C -17.9°F-27.7°C 79% 1.2 mph NW1.9 kmh NW 1.2 mph1.9 kmh 30.30 in1026.1 mb - 0.00 in0.0 mm 0.00 in0.0 mm
06:30 AM -13.4°F-25.2°C -18.0°F-27.8°C 79% Calm Calm -- 30.29 in1025.7 mb - 0.00 in0.0 mm 0.00 in0.0 mm
06:40 AM -13.5°F-25.3°C -18.1°F-27.8°C 79% Calm Calm -- 30.29 in1025.7 mb - 0.00 in0.0 mm 0.00 in0.0 mm
06:50 AM -13.8°F-25.4°C -18.7°F-28.2°C 78% 1.2 mph NW1.9 kmh NW 2.3 mph3.7 kmh 30.28 in1025.4 mb - 0.00 in0.0 mm 0.00 in0.0 mm
07:00 AM -14.1°F-25.6°C -19.0°F-28.3°C 78% Calm Calm -- 30.27 in1025.1 mb - 0.00 in0.0 mm 0.00 in0.0 mm
07:10 AM -14.4°F-25.8°C -19.3°F-28.5°C 78% Calm Calm -- 30.27 in1025.1 mb - 0.00 in0.0 mm 0.00 in0.0 mm
07:20 AM -14.7°F-25.9°C -19.5°F-28.6°C 78% Calm Calm -- 30.27 in1025.1 mb - 0.00 in0.0 mm 0.00 in0.0 mm
07:30 AM -14.9°F-26.1°C -19.8°F-28.8°C 78% Calm Calm 1.2 mph1.9 kmh 30.27 in1025.1 mb - 0.00 in0.0 mm 0.00 in0.0 mm
07:40 AM -15.1°F-26.2°C -20.0°F-28.9°C 78% Calm Calm 1.2 mph1.9 kmh 30.27 in1025.1 mb - 0.00 in0.0 mm 0.00 in0.0 mm
07:50 AM -15.1°F-26.2°C -20.0°F-28.9°C 78% Calm Calm -- 30.27 in1025.1 mb - 0.00 in0.0 mm 0.00 in0.0 mm
08:00 AM -14.8°F-26.0°C -19.4°F-28.6°C 79% Calm Calm -- 30.27 in1025.1 mb - 0.00 in0.0 mm 0.00 in0.0 mm
08:10 AM -14.2°F-25.7°C -18.9°F-28.3°C 79% Calm Calm 1.2 mph1.9 kmh 30.26 in1024.7 mb - 0.00 in0.0 mm 0.00 in0.0 mm
08:20 AM -13.0°F-25.0°C -17.4°F-27.4°C 80% Calm Calm 1.2 mph1.9 kmh 30.26 in1024.7 mb - 0.00 in0.0 mm 0.00 in0.0 mm
08:30 AM -11.2°F-24.0°C -15.4°F-26.3°C 81% Calm Calm 1.2 mph1.9 kmh 30.26 in1024.7 mb - 0.00 in0.0 mm 0.00 in0.0 mm
08:40 AM -9.2°F-22.9°C -13.4°F-25.2°C 81% Calm Calm 1.2 mph1.9 kmh 30.26 in1024.7 mb - 0.00 in0.0 mm 0.00 in0.0 mm
08:50 AM -7.2°F-21.8°C -11.2°F-24.0°C 82% Calm Calm 1.2 mph1.9 kmh 30.25 in1024.4 mb - 0.00 in0.0 mm 0.00 in0.0 mm
09:00 AM -5.8°F-21.0°C -9.9°F-23.3°C 82% Calm Calm 1.2 mph1.9 kmh 30.25 in1024.4 mb - 0.00 in0.0 mm 0.00 in0.0 mm
09:10 AM -4.8°F-20.4°C -8.9°F-22.7°C 82% Calm Calm -- 30.25 in1024.4 mb - 0.00 in0.0 mm 0.00 in0.0 mm
09:20 AM -1.5°F-18.6°C -5.4°F-20.8°C 83% 1.2 mph NW1.9 kmh NW 1.2 mph1.9 kmh 30.25 in1024.4 mb - 0.00 in0.0 mm 0.00 in0.0 mm
09:30 AM -0.9°F-18.3°C -5.0°F-20.6°C 82% 1.2 mph NW1.9 kmh NW 2.3 mph3.7 kmh 30.25 in1024.4 mb - 0.00 in0.0 mm 0.00 in0.0 mm
09:40 AM 0.3°F-17.6°C -3.9°F-19.9°C 82% 1.2 mph N1.9 kmh N 1.2 mph1.9 kmh 30.25 in1024.4 mb - 0.00 in0.0 mm 0.00 in0.0 mm
09:50 AM 1.4°F-17.0°C -3.3°F-19.6°C 80% 1.2 mph NNE1.9 kmh NNE 2.3 mph3.7 kmh 30.25 in1024.4 mb - 0.00 in0.0 mm 0.00 in0.0 mm
10:00 AM 1.2°F-17.1°C -3.8°F-19.9°C 79% 1.2 mph NE1.9 kmh NE 1.2 mph1.9 kmh 30.25 in1024.4 mb - 0.00 in0.0 mm 0.00 in0.0 mm
10:10 AM 2.6°F-16.3°C -2.5°F-19.2°C 79% 1.2 mph NE1.9 kmh NE 2.3 mph3.7 kmh 30.24 in1024.0 mb - 0.00 in0.0 mm 0.00 in0.0 mm
10:20 AM 3.7°F-15.7°C -1.6°F-18.7°C 78% 2.3 mph SSW3.7 kmh SSW 3.5 mph5.6 kmh 30.25 in1024.4 mb - 0.00 in0.0 mm 0.00 in0.0 mm
10:30 AM 4.9°F-15.1°C -2.2°F-19.0°C 72% 2.3 mph SSW3.7 kmh SSW 3.5 mph5.6 kmh 30.24 in1024.0 mb - 0.00 in0.0 mm 0.00 in0.0 mm
10:40 AM 4.8°F-15.1°C -3.1°F-19.5°C 69% 3.5 mph SW5.6 kmh SW 4.6 mph7.4 kmh 30.24 in1024.0 mb - 0.00 in0.0 mm 0.00 in0.0 mm
10:50 AM 5.1°F-14.9°C -3.2°F-19.6°C 68% 2.3 mph S3.7 kmh S 3.5 mph5.6 kmh 30.23 in1023.7 mb - 0.00 in0.0 mm 0.00 in0.0 mm
11:00 AM 5.1°F-14.9°C -2.9°F-19.4°C 69% 3.5 mph S5.6 kmh S 4.6 mph7.4 kmh 30.22 in1023.4 mb - 0.00 in0.0 mm 0.00 in0.0 mm
11:10 AM 5.4°F-14.8°C -2.6°F-19.2°C 69% 3.5 mph SSW5.6 kmh SSW 3.5 mph5.6 kmh 30.21 in1023.0 mb - 0.00 in0.0 mm 0.00 in0.0 mm
11:20 AM 6.0°F-14.4°C -1.7°F-18.7°C 70% 3.5 mph SW5.6 kmh SW 4.6 mph7.4 kmh 30.21 in1023.0 mb - 0.00 in0.0 mm 0.00 in0.0 mm
11:30 AM 6.0°F-14.4°C -2.0°F-18.9°C 69% 2.3 mph SW3.7 kmh SW 3.5 mph5.6 kmh 30.21 in1023.0 mb - 0.00 in0.0 mm 0.00 in0.0 mm
11:40 AM 6.3°F-14.3°C -1.7°F-18.7°C 69% 3.5 mph S5.6 kmh S 4.6 mph7.4 kmh 30.20 in1022.7 mb - 0.00 in0.0 mm 0.00 in0.0 mm
11:50 AM 6.8°F-14.0°C -0.9°F-18.3°C 70% 3.5 mph SSW5.6 kmh SSW 5.8 mph9.3 kmh 30.19 in1022.4 mb - 0.00 in0.0 mm 0.00 in0.0 mm
12:00 PM 6.8°F-14.0°C -0.9°F-18.3°C 70% 2.3 mph S3.7 kmh S 3.5 mph5.6 kmh 30.19 in1022.4 mb - 0.00 in0.0 mm 0.00 in0.0 mm
12:10 PM 7.2°F-13.8°C -0.8°F-18.2°C 69% 3.5 mph SW5.6 kmh SW 5.8 mph9.3 kmh 30.18 in1022.0 mb - 0.00 in0.0 mm 0.00 in0.0 mm
12:20 PM 6.8°F-14.0°C -0.9°F-18.3°C 70% 4.6 mph SW7.4 kmh SW 4.6 mph7.4 kmh 30.17 in1021.7 mb - 0.00 in0.0 mm 0.00 in0.0 mm
12:30 PM 7.3°F-13.7°C -0.4°F-18.0°C 70% 4.6 mph S7.4 kmh S 6.9 mph11.1 kmh 30.16 in1021.3 mb - 0.00 in0.0 mm 0.00 in0.0 mm
12:40 PM 7.7°F-13.5°C 0.2°F-17.7°C 71% 3.5 mph SSE5.6 kmh SSE 4.6 mph7.4 kmh 30.15 in1021.0 mb - 0.00 in0.0 mm 0.00 in0.0 mm
12:50 PM 6.9°F-13.9°C -0.5°F-18.1°C 71% 4.6 mph S7.4 kmh S 6.9 mph11.1 kmh 30.14 in1020.7 mb - 0.00 in0.0 mm 0.00 in0.0 mm
01:00 PM 7.2°F-13.8°C -0.3°F-17.9°C 71% 3.5 mph SSE5.6 kmh SSE 6.9 mph11.1 kmh 30.13 in1020.3 mb - 0.00 in0.0 mm 0.00 in0.0 mm
01:10 PM 7.7°F-13.5°C 0.5°F-17.5°C 72% 3.5 mph S5.6 kmh S 4.6 mph7.4 kmh 30.12 in1020.0 mb - 0.00 in0.0 mm 0.00 in0.0 mm
01:20 PM 8.6°F-13.0°C 1.4°F-17.0°C 72% 3.5 mph S5.6 kmh S 4.6 mph7.4 kmh 30.11 in1019.6 mb - 0.00 in0.0 mm 0.00 in0.0 mm
01:30 PM 9.2°F-12.7°C 2.3°F-16.5°C 73% 4.6 mph S7.4 kmh S 5.8 mph9.3 kmh 30.11 in1019.6 mb - 0.00 in0.0 mm 0.00 in0.0 mm
01:40 PM 9.5°F-12.5°C 2.6°F-16.3°C 73% 4.6 mph S7.4 kmh S 9.2 mph14.8 kmh 30.10 in1019.3 mb - 0.00 in0.0 mm 0.00 in0.0 mm
01:50 PM 10.1°F-12.2°C 3.2°F-16.0°C 73% 3.5 mph SE5.6 kmh SE 5.8 mph9.3 kmh 30.09 in1019.0 mb - 0.00 in0.0 mm 0.00 in0.0 mm
02:00 PM 10.2°F-12.1°C 3.2°F-16.0°C 73% 4.6 mph S7.4 kmh S 5.8 mph9.3 kmh 30.09 in1019.0 mb - 0.00 in0.0 mm 0.00 in0.0 mm
02:10 PM 10.5°F-11.9°C 3.9°F-15.6°C 74% 2.3 mph SE3.7 kmh SE 4.6 mph7.4 kmh 30.08 in1018.6 mb - 0.00 in0.0 mm 0.00 in0.0 mm
02:20 PM 10.5°F-11.9°C 3.8°F-15.7°C 74% 2.3 mph SSE3.7 kmh SSE 3.5 mph5.6 kmh 30.07 in1018.3 mb - 0.00 in0.0 mm 0.00 in0.0 mm
02:30 PM 10.6°F-11.9°C 4.3°F-15.4°C 75% 3.5 mph SSW5.6 kmh SSW 4.6 mph7.4 kmh 30.07 in1018.3 mb - 0.00 in0.0 mm 0.00 in0.0 mm
02:40 PM 10.9°F-11.7°C 4.8°F-15.1°C 76% 2.3 mph SE3.7 kmh SE 3.5 mph5.6 kmh 30.05 in1017.6 mb - 0.00 in0.0 mm 0.00 in0.0 mm
02:50 PM 11.1°F-11.6°C 5.0°F-15.0°C 76% 2.3 mph SE3.7 kmh SE 3.5 mph5.6 kmh 30.05 in1017.6 mb - 0.00 in0.0 mm 0.00 in0.0 mm
03:00 PM 11.1°F-11.6°C 5.3°F-14.8°C 77% 2.3 mph SE3.7 kmh SE 3.5 mph5.6 kmh 30.05 in1017.6 mb - 0.00 in0.0 mm 0.00 in0.0 mm
03:10 PM 11.3°F-11.5°C 5.7°F-14.6°C 78% Calm Calm 2.3 mph3.7 kmh 30.05 in1017.6 mb - 0.00 in0.0 mm 0.00 in0.0 mm
03:20 PM 11.4°F-11.4°C 6.2°F-14.3°C 79% 1.2 mph SSE1.9 kmh SSE 2.3 mph3.7 kmh 30.04 in1017.3 mb - 0.00 in0.0 mm 0.00 in0.0 mm
03:30 PM 11.4°F-11.4°C 6.4°F-14.2°C 80% 1.2 mph S1.9 kmh S 2.3 mph3.7 kmh 30.04 in1017.3 mb - 0.00 in0.0 mm 0.00 in0.0 mm
03:40 PM 11.3°F-11.5°C 6.6°F-14.1°C 81% 2.3 mph E3.7 kmh E 3.5 mph5.6 kmh 30.04 in1017.3 mb - 0.00 in0.0 mm 0.00 in0.0 mm
03:50 PM 11.1°F-11.6°C 6.4°F-14.2°C 81% 1.2 mph ESE1.9 kmh ESE 3.5 mph5.6 kmh 30.03 in1016.9 mb - 0.00 in0.0 mm 0.00 in0.0 mm
04:00 PM 10.8°F-11.8°C 6.1°F-14.4°C 81% Calm Calm 1.2 mph1.9 kmh 30.03 in1016.9 mb - 0.00 in0.0 mm 0.00 in0.0 mm
04:10 PM 10.8°F-11.8°C 6.4°F-14.2°C 82% 1.2 mph ESE1.9 kmh ESE 1.2 mph1.9 kmh 30.03 in1016.9 mb - 0.00 in0.0 mm 0.00 in0.0 mm
04:20 PM 10.8°F-11.8°C 6.4°F-14.2°C 82% 1.2 mph SE1.9 kmh SE 2.3 mph3.7 kmh 30.03 in1016.9 mb - 0.00 in0.0 mm 0.00 in0.0 mm
04:30 PM 10.7°F-11.8°C 6.3°F-14.3°C 82% 1.2 mph ESE1.9 kmh ESE 3.5 mph5.6 kmh 30.02 in1016.6 mb - 0.00 in0.0 mm 0.00 in0.0 mm
04:40 PM 10.6°F-11.9°C 6.5°F-14.2°C 83% 1.2 mph SE1.9 kmh SE 2.3 mph3.7 kmh 30.02 in1016.6 mb - 0.00 in0.0 mm 0.00 in0.0 mm
04:50 PM 10.6°F-11.9°C 6.5°F-14.2°C 83% 1.2 mph ESE1.9 kmh ESE 1.2 mph1.9 kmh 30.02 in1016.6 mb - 0.00 in0.0 mm 0.00 in0.0 mm
05:00 PM 10.6°F-11.9°C 6.5°F-14.2°C 83% 2.3 mph E3.7 kmh E 3.5 mph5.6 kmh 30.01 in1016.3 mb - 0.00 in0.0 mm 0.00 in0.0 mm
05:10 PM 10.7°F-11.8°C 6.8°F-14.0°C 84% 2.3 mph E3.7 kmh E 3.5 mph5.6 kmh 30.01 in1016.3 mb - 0.00 in0.0 mm 0.00 in0.0 mm
05:20 PM 10.6°F-11.9°C 6.7°F-14.1°C 84% 2.3 mph E3.7 kmh E 4.6 mph7.4 kmh 30.01 in1016.3 mb - 0.00 in0.0 mm 0.00 in0.0 mm
05:30 PM 10.5°F-11.9°C 6.6°F-14.1°C 84% 1.2 mph E1.9 kmh E 2.3 mph3.7 kmh 30.00 in1015.9 mb - 0.00 in0.0 mm 0.00 in0.0 mm
05:40 PM 10.5°F-11.9°C 6.6°F-14.1°C 84% 2.3 mph E3.7 kmh E 3.5 mph5.6 kmh 30.00 in1015.9 mb - 0.00 in0.0 mm 0.00 in0.0 mm
05:50 PM 10.7°F-11.8°C 7.1°F-13.8°C 85% 1.2 mph ESE1.9 kmh ESE 2.3 mph3.7 kmh 30.00 in1015.9 mb - 0.00 in0.0 mm 0.00 in0.0 mm
06:00 PM 10.7°F-11.8°C 7.1°F-13.8°C 85% Calm Calm 1.2 mph1.9 kmh 30.00 in1015.9 mb - 0.00 in0.0 mm 0.00 in0.0 mm
06:10 PM 10.9°F-11.7°C 7.3°F-13.7°C 85% Calm Calm 1.2 mph1.9 kmh 30.00 in1015.9 mb - 0.00 in0.0 mm 0.00 in0.0 mm
06:20 PM 10.9°F-11.7°C 7.3°F-13.7°C 85% Calm Calm -- 30.01 in1016.3 mb - 0.00 in0.0 mm 0.00 in0.0 mm
06:30 PM 11.0°F-11.7°C 7.1°F-13.8°C 84% Calm Calm 2.3 mph3.7 kmh 30.01 in1016.3 mb - 0.00 in0.0 mm 0.00 in0.0 mm
06:40 PM 11.0°F-11.7°C 7.1°F-13.8°C 84% Calm Calm 1.2 mph1.9 kmh 30.01 in1016.3 mb - 0.00 in0.0 mm 0.00 in0.0 mm
06:50 PM 11.2°F-11.6°C 7.3°F-13.7°C 84% 1.2 mph SSE1.9 kmh SSE 2.3 mph3.7 kmh 30.01 in1016.3 mb - 0.00 in0.0 mm 0.00 in0.0 mm
07:00 PM 11.2°F-11.6°C 7.3°F-13.7°C 84% 1.2 mph WSW1.9 kmh WSW 2.3 mph3.7 kmh 30.02 in1016.6 mb - 0.00 in0.0 mm 0.00 in0.0 mm
07:10 PM 11.3°F-11.5°C 7.4°F-13.7°C 84% 1.2 mph SW1.9 kmh SW 2.3 mph3.7 kmh 30.01 in1016.3 mb - 0.00 in0.0 mm 0.00 in0.0 mm
07:20 PM 11.4°F-11.4°C 7.5°F-13.6°C 84% Calm Calm 2.3 mph3.7 kmh 30.01 in1016.3 mb - 0.00 in0.0 mm 0.00 in0.0 mm
07:30 PM 11.3°F-11.5°C 7.4°F-13.7°C 84% 2.3 mph W3.7 kmh W 3.5 mph5.6 kmh 30.01 in1016.3 mb - 0.00 in0.0 mm 0.00 in0.0 mm
07:40 PM 11.2°F-11.6°C 7.3°F-13.7°C 84% 1.2 mph W1.9 kmh W 2.3 mph3.7 kmh 30.01 in1016.3 mb - 0.00 in0.0 mm 0.00 in0.0 mm
07:50 PM 11.2°F-11.6°C 7.3°F-13.7°C 84% 1.2 mph SW1.9 kmh SW 1.2 mph1.9 kmh 30.01 in1016.3 mb - 0.00 in0.0 mm 0.00 in0.0 mm
08:00 PM 11.2°F-11.6°C 7.3°F-13.7°C 84% 1.2 mph SW1.9 kmh SW 2.3 mph3.7 kmh 30.01 in1016.3 mb - 0.00 in0.0 mm 0.00 in0.0 mm
08:10 PM 11.3°F-11.5°C 7.4°F-13.7°C 84% 2.3 mph SW3.7 kmh SW 3.5 mph5.6 kmh 30.01 in1016.3 mb - 0.00 in0.0 mm 0.00 in0.0 mm
08:20 PM 11.4°F-11.4°C 7.5°F-13.6°C 84% 2.3 mph WSW3.7 kmh WSW 3.5 mph5.6 kmh 30.01 in1016.3 mb - 0.00 in0.0 mm 0.00 in0.0 mm
08:30 PM 11.4°F-11.4°C 7.5°F-13.6°C 84% 1.2 mph WSW1.9 kmh WSW 3.5 mph5.6 kmh 30.01 in1016.3 mb - 0.00 in0.0 mm 0.00 in0.0 mm
08:40 PM 11.4°F-11.4°C 7.5°F-13.6°C 84% 2.3 mph SW3.7 kmh SW 4.6 mph7.4 kmh 30.01 in1016.3 mb - 0.00 in0.0 mm 0.00 in0.0 mm
08:50 PM 11.3°F-11.5°C 7.4°F-13.7°C 84% 3.5 mph WSW5.6 kmh WSW 5.8 mph9.3 kmh 30.02 in1016.6 mb - 0.00 in0.0 mm 0.00 in0.0 mm
09:00 PM 11.3°F-11.5°C 7.4°F-13.7°C 84% 3.5 mph W5.6 kmh W 4.6 mph7.4 kmh 30.02 in1016.6 mb - 0.00 in0.0 mm 0.00 in0.0 mm
09:10 PM 11.3°F-11.5°C 7.4°F-13.7°C 84% 4.6 mph WSW7.4 kmh WSW 4.6 mph7.4 kmh 30.02 in1016.6 mb - 0.00 in0.0 mm 0.00 in0.0 mm
09:20 PM 11.3°F-11.5°C 7.4°F-13.7°C 84% 4.6 mph W7.4 kmh W 6.9 mph11.1 kmh 30.03 in1016.9 mb - 0.00 in0.0 mm 0.00 in0.0 mm
09:30 PM 11.3°F-11.5°C 7.4°F-13.7°C 84% 6.9 mph W11.1 kmh W 9.2 mph14.8 kmh 30.03 in1016.9 mb - 0.00 in0.0 mm 0.00 in0.0 mm
09:40 PM 11.3°F-11.5°C 7.4°F-13.7°C 84% 6.9 mph W11.1 kmh W 10.4 mph16.7 kmh 30.03 in1016.9 mb - 0.00 in0.0 mm 0.00 in0.0 mm
09:50 PM 11.0°F-11.7°C 6.9°F-13.9°C 83% 8.1 mph W13.0 kmh W 11.5 mph18.5 kmh 30.04 in1017.3 mb - 0.00 in0.0 mm 0.00 in0.0 mm
10:00 PM 10.4°F-12.0°C 6.2°F-14.3°C 83% 8.1 mph W13.0 kmh W 15.0 mph24.1 kmh 30.04 in1017.3 mb - 0.00 in0.0 mm 0.00 in0.0 mm
10:10 PM 9.8°F-12.3°C 5.4°F-14.8°C 82% 9.2 mph WNW14.8 kmh WNW 12.7 mph20.4 kmh 30.04 in1017.3 mb - 0.00 in0.0 mm 0.00 in0.0 mm
10:20 PM 9.2°F-12.7°C 4.9°F-15.1°C 82% 8.1 mph W13.0 kmh W 11.5 mph18.5 kmh 30.04 in1017.3 mb - 0.00 in0.0 mm 0.00 in0.0 mm
10:30 PM 8.7°F-12.9°C 4.1°F-15.5°C 81% 8.1 mph W13.0 kmh W 11.5 mph18.5 kmh 30.04 in1017.3 mb - 0.00 in0.0 mm 0.00 in0.0 mm
10:40 PM 8.4°F-13.1°C 3.8°F-15.7°C 81% 6.9 mph WNW11.1 kmh WNW 9.2 mph14.8 kmh 30.05 in1017.6 mb - 0.00 in0.0 mm 0.00 in0.0 mm
10:50 PM 8.1°F-13.3°C 3.5°F-15.8°C 81% 9.2 mph WNW14.8 kmh WNW 12.7 mph20.4 kmh 30.05 in1017.6 mb - 0.00 in0.0 mm 0.00 in0.0 mm
11:00 PM 7.6°F-13.6°C 2.7°F-16.3°C 80% 9.2 mph W14.8 kmh W 11.5 mph18.5 kmh 30.06 in1017.9 mb - 0.00 in0.0 mm 0.00 in0.0 mm
11:10 PM 6.9°F-13.9°C 2.1°F-16.6°C 80% 6.9 mph WNW11.1 kmh WNW 15.0 mph24.1 kmh 30.06 in1017.9 mb - 0.00 in0.0 mm 0.00 in0.0 mm
11:20 PM 6.2°F-14.3°C 1.1°F-17.2°C 79% 9.2 mph WNW14.8 kmh WNW 16.1 mph25.9 kmh 30.06 in1017.9 mb - 0.00 in0.0 mm 0.00 in0.0 mm
11:30 PM 5.5°F-14.7°C 0.4°F-17.6°C 79% 5.8 mph WNW9.3 kmh WNW 8.1 mph13.0 kmh 30.07 in1018.3 mb - 0.00 in0.0 mm 0.00 in0.0 mm
11:40 PM 5.0°F-15.0°C -0.1°F-17.8°C 79% 6.9 mph W11.1 kmh W 11.5 mph18.5 kmh 30.07 in1018.3 mb - 0.00 in0.0 mm 0.00 in0.0 mm
11:50 PM 4.7°F-15.2°C -0.4°F-18.0°C 79% 10.4 mph WNW16.7 kmh WNW 16.1 mph25.9 kmh 30.08 in1018.6 mb - 0.00 in0.0 mm 0.00 in0.0 mm